Flight Number: AVA1549 Duration: 1:00
Departure: Ljubljana (LJLJ) at 16:30 Distance: 293.81 Nm
Arrival: Tivat (LYTV) at 17:30 Equipment: A321

Weather Information
Ljubljana / Brnik, Slovenia (LJLJ) 46-13N 014-29E 362M Jun 19, 2024 - 08:30 AM EDT / 2024.06.19 1230 UTC
Wind: from the WSW (250 degrees) at 13 MPH (11 KT) (direction variable):0
Visibility: greater than 7 mile(s):0
Sky conditions: partly cloudy Temperature: 86 F (30 C) Dew Point: 59 F (15 C) Relative Humidity: 40% Pressure (altimeter): 30.00 in. Hg (1016 hPa)
ob: LJLJ 191230Z 25011KT 220V280 9999 FEW060 SCT250 30/15 Q1016 NOSIG cycle: 12
Sunrise: 03:14 Sunset: 18:53 (UTC)

Tivat, Serbia and Montenegro (LYTV) 42-24N 018-44E 5M Jun 19, 2024 - 08:30 AM EDT / 2024.06.19 1230 UTC
Wind: from the W (280 degrees) at 8 MPH (7 KT):0
Visibility: greater than 7 mile(s):0 Temperature: 86 F (30 C) Heat index: 91.8 F (33.2 C):1 Dew Point: 71 F (22 C) Relative Humidity: 62% Pressure (altimeter): 30.00 in. Hg (1016 hPa)
ob: LYTV 191230Z 28007KT CAVOK 30/22 Q1016 NOSIG cycle: 12
Sunrise: 03:11 Sunset: 18:21 (UTC)

TAF:2024/06/19 12:21 TAF LYTV 191100Z 1912/2012 23007KT CAVOK TX32/1914Z TN17/2003Z

Previous Pireps for this route
Date Flightnr Aircraft Flight time Fuel used Landing rate On time
2018-09-28AVA1549A3211.2355000No
(pireps marked green are flown by you)

Route map